createdAt,value
2019-03-20T00:02:32.548Z,13.70
2019-03-20T00:08:37.144Z,13.70
2019-03-20T00:11:17.906Z,13.60
2019-03-20T00:13:59.450Z,13.70
2019-03-20T00:19:42.612Z,13.70
2019-03-20T00:36:03.409Z,13.60
2019-03-20T00:39:09.259Z,13.40
2019-03-20T00:42:35.711Z,13.60
2019-03-20T00:45:24.075Z,13.60
2019-03-20T00:51:50.984Z,13.60
2019-03-20T01:01:54.838Z,13.60
2019-03-20T01:10:29.607Z,13.50
2019-03-20T01:32:12.347Z,13.40
2019-03-20T01:35:11.966Z,13.50
2019-03-20T01:37:52.697Z,13.50
2019-03-20T01:46:42.903Z,13.50
2019-03-20T01:52:40.723Z,13.50
2019-03-20T01:55:21.993Z,13.50
2019-03-20T02:04:10.595Z,13.00
2019-03-20T02:07:11.049Z,13.40
2019-03-20T02:16:15.567Z,13.20
2019-03-20T02:26:49.454Z,13.40
2019-03-20T02:33:19.407Z,13.40
2019-03-20T02:42:42.032Z,13.40
2019-03-20T02:52:42.849Z,13.40
2019-03-20T02:56:07.711Z,13.40
2019-03-20T02:59:13.932Z,13.40
2019-03-20T03:02:02.324Z,13.30
2019-03-20T03:04:50.608Z,13.30
2019-03-20T03:07:31.201Z,13.30
2019-03-20T03:10:12.704Z,13.30
2019-03-20T03:12:53.445Z,13.30
2019-03-20T03:15:34.862Z,13.30
2019-03-20T03:18:34.508Z,13.30
2019-03-20T03:21:16.003Z,13.30
2019-03-20T03:23:56.992Z,13.30
2019-03-20T03:26:37.664Z,13.30
2019-03-20T03:32:42.366Z,13.30
2019-03-20T03:35:42.751Z,13.30
2019-03-20T03:38:23.283Z,13.30
2019-03-20T03:41:05.031Z,13.20
2019-03-20T03:43:45.737Z,13.10
2019-03-20T03:49:43.742Z,13.20
2019-03-20T03:52:24.392Z,13.30
2019-03-20T03:55:05.837Z,13.20
2019-03-20T04:00:52.122Z,13.30
2019-03-20T04:03:33.144Z,13.20
2019-03-20T04:09:34.175Z,13.20
2019-03-20T04:12:14.995Z,13.20
2019-03-20T04:14:55.878Z,13.20
2019-03-20T04:20:55.921Z,13.30
2019-03-20T04:26:42.946Z,13.20
2019-03-20T04:35:55.637Z,13.20
2019-03-20T04:38:37.109Z,13.20
2019-03-20T04:44:44.649Z,13.20
2019-03-20T04:53:47.244Z,13.20
2019-03-20T04:59:36.608Z,13.20
2019-03-20T05:30:39.886Z,13.10
2019-03-20T05:33:20.458Z,13.10
2019-03-20T05:36:01.986Z,13.10
2019-03-20T05:38:43.540Z,13.10
2019-03-20T05:53:43.634Z,13.20
2019-03-20T05:59:33.432Z,12.90
2019-03-20T06:02:14.783Z,13.10
2019-03-20T06:04:55.623Z,13.20
2019-03-20T06:23:04.155Z,13.30
2019-03-20T06:29:04.799Z,13.50
2019-03-20T06:31:45.503Z,13.60
2019-03-20T06:34:26.498Z,13.60
2019-03-20T06:37:32.510Z,13.70
2019-03-20T06:40:08.614Z,13.80
2019-03-20T06:42:50.257Z,13.90
2019-03-20T06:48:50.734Z,14.00
2019-03-20T07:03:59.820Z,14.40
2019-03-20T07:07:01.050Z,14.50
2019-03-20T07:10:02.216Z,14.60
2019-03-20T07:22:03.620Z,14.80
2019-03-20T07:24:44.219Z,14.90
2019-03-20T07:27:44.251Z,14.90
2019-03-20T07:30:44.552Z,15.00
2019-03-20T07:33:25.745Z,14.90
2019-03-20T07:42:48.793Z,15.20
2019-03-20T07:51:49.937Z,15.20
2019-03-20T08:09:54.703Z,15.40
2019-03-20T08:12:54.324Z,15.40
2019-03-20T08:22:03.262Z,15.50
2019-03-20T08:24:43.890Z,15.50
2019-03-20T08:27:24.490Z,15.50
2019-03-20T08:33:09.178Z,15.50
2019-03-20T08:38:59.670Z,15.60
2019-03-20T08:48:03.938Z,15.70
2019-03-20T08:50:45.456Z,15.70
2019-03-20T08:53:26.674Z,15.70
2019-03-20T08:56:26.244Z,15.80
2019-03-20T08:59:07.469Z,15.60
2019-03-20T09:05:24.368Z,16.00
2019-03-20T09:08:05.771Z,15.90
2019-03-20T09:10:47.124Z,16.00
2019-03-20T09:13:28.796Z,15.80
2019-03-20T09:16:28.820Z,15.90
2019-03-20T09:19:28.874Z,15.80
2019-03-20T09:25:27.674Z,15.90
2019-03-20T09:31:28.338Z,16.00
2019-03-20T09:37:14.125Z,15.90
2019-03-20T09:43:19.580Z,16.00
2019-03-20T09:46:01.147Z,16.00
2019-03-20T09:49:00.668Z,15.90
2019-03-20T09:54:50.355Z,16.00
2019-03-20T09:57:31.821Z,16.00
2019-03-20T10:00:13.246Z,16.00
2019-03-20T10:02:55.139Z,15.90
2019-03-20T10:05:36.452Z,15.80
2019-03-20T10:11:37.573Z,15.90
2019-03-20T10:20:43.512Z,15.80
2019-03-20T10:23:24.970Z,15.80
2019-03-20T10:29:11.806Z,15.70
2019-03-20T10:31:52.634Z,15.80
2019-03-20T10:34:52.862Z,15.90
2019-03-20T10:37:34.394Z,15.80
2019-03-20T10:40:15.832Z,15.70
2019-03-20T10:52:28.983Z,15.70
2019-03-20T11:01:42.101Z,15.50
2019-03-20T11:07:11.088Z,15.70
2019-03-20T11:13:09.917Z,16.20
2019-03-20T11:15:51.464Z,16.30
2019-03-20T11:24:45.845Z,16.10
2019-03-20T11:27:27.502Z,16.00
2019-03-20T11:39:34.682Z,16.10
2019-03-20T11:54:42.058Z,16.30
2019-03-20T11:57:41.653Z,16.20
2019-03-20T12:03:29.843Z,16.40
2019-03-20T12:06:18.334Z,16.40
2019-03-20T12:12:22.922Z,16.40
2019-03-20T12:15:23.286Z,16.50
2019-03-20T12:21:11.796Z,16.30
2019-03-20T12:23:52.482Z,16.40
2019-03-20T12:26:52.634Z,16.50
2019-03-20T12:32:38.330Z,16.50
2019-03-20T12:38:36.332Z,16.50
2019-03-20T12:41:17.820Z,16.50
2019-03-20T12:47:23.314Z,16.50
2019-03-20T12:53:23.481Z,16.50
2019-03-20T12:56:24.094Z,16.50
2019-03-20T12:59:05.652Z,16.40
2019-03-20T13:14:20.637Z,16.60
2019-03-20T13:17:20.424Z,16.60
2019-03-20T13:23:21.174Z,16.60
2019-03-20T13:32:25.136Z,16.60
2019-03-20T13:38:44.661Z,16.60
2019-03-20T13:41:26.164Z,16.70
2019-03-20T13:47:12.425Z,16.60
2019-03-20T13:49:53.356Z,16.60
2019-03-20T13:52:34.686Z,16.60
2019-03-20T13:55:15.918Z,16.60
2019-03-20T13:57:57.144Z,16.60
2019-03-20T14:03:53.935Z,16.60
2019-03-20T14:07:00.105Z,16.60
2019-03-20T14:09:41.107Z,16.60
2019-03-20T14:12:21.871Z,16.50
2019-03-20T14:15:03.136Z,16.40
2019-03-20T14:17:43.995Z,16.20
2019-03-20T14:23:30.379Z,15.90
2019-03-20T14:26:30.396Z,15.40
2019-03-20T14:29:11.088Z,15.70
2019-03-20T14:31:51.816Z,15.80
2019-03-20T14:34:32.690Z,15.70
2019-03-20T14:40:36.918Z,15.60
2019-03-20T14:43:18.239Z,15.60
2019-03-20T14:45:59.658Z,15.50
2019-03-20T14:48:41.252Z,15.20
2019-03-20T14:54:41.109Z,15.50
2019-03-20T15:00:41.871Z,15.50
2019-03-20T15:03:23.299Z,15.50
2019-03-20T15:06:03.954Z,15.40
2019-03-20T15:08:44.584Z,15.40
2019-03-20T15:11:26.324Z,15.10
2019-03-20T15:14:26.779Z,15.40
2019-03-20T15:20:46.184Z,15.40
2019-03-20T15:23:27.602Z,15.40
2019-03-20T15:26:09.111Z,15.00
2019-03-20T15:28:49.943Z,15.30
2019-03-20T15:31:31.494Z,15.30
2019-03-20T15:34:16.830Z,15.30
2019-03-20T15:36:59.513Z,15.30
2019-03-20T15:55:18.069Z,15.20
2019-03-20T15:57:59.874Z,15.20
2019-03-20T16:00:41.388Z,15.20
2019-03-20T16:09:43.926Z,15.20
2019-03-20T16:34:06.290Z,15.10
2019-03-20T16:36:47.888Z,15.10
2019-03-20T16:43:06.820Z,15.00
2019-03-20T16:45:48.352Z,15.00
2019-03-20T16:48:29.927Z,15.10
2019-03-20T16:51:10.724Z,15.10
2019-03-20T16:53:52.202Z,14.80
2019-03-20T16:56:33.042Z,15.00
2019-03-20T16:59:14.198Z,14.90
2019-03-20T17:01:55.778Z,15.00
2019-03-20T17:04:36.449Z,15.00
2019-03-20T17:07:18.028Z,15.00
2019-03-20T17:10:18.209Z,15.00
2019-03-20T17:12:58.966Z,15.00
2019-03-20T17:15:40.084Z,14.90
2019-03-20T17:21:25.703Z,15.00
2019-03-20T17:27:11.854Z,14.90
2019-03-20T17:29:53.091Z,14.90
2019-03-20T17:32:34.185Z,14.90
2019-03-20T17:38:34.334Z,14.90
2019-03-20T17:41:15.614Z,14.60
2019-03-20T18:02:24.215Z,14.80
2019-03-20T18:05:05.935Z,14.70
2019-03-20T18:08:05.790Z,14.80
2019-03-20T18:14:03.600Z,14.70
2019-03-20T18:45:00.507Z,14.60
2019-03-20T18:54:03.149Z,14.60
2019-03-20T18:56:44.545Z,14.60
2019-03-20T19:05:34.022Z,14.50
2019-03-20T19:08:15.434Z,14.50
2019-03-20T19:10:56.683Z,14.50
2019-03-20T19:16:42.486Z,14.50
2019-03-20T19:19:23.144Z,14.50
2019-03-20T19:22:22.736Z,14.50
2019-03-20T19:25:04.184Z,14.50
2019-03-20T19:27:45.216Z,14.40
2019-03-20T19:30:25.990Z,14.40
2019-03-20T19:36:44.794Z,14.40
2019-03-20T19:42:30.687Z,14.40
2019-03-20T19:57:27.826Z,14.40
2019-03-20T20:07:11.517Z,14.40
2019-03-20T20:09:52.886Z,14.30
2019-03-20T20:31:31.968Z,14.30
2019-03-20T20:37:36.441Z,14.10
2019-03-20T20:40:36.642Z,14.30
2019-03-20T20:43:36.648Z,14.20
2019-03-20T20:46:17.400Z,14.30
2019-03-20T20:48:58.233Z,14.20
2019-03-20T20:51:39.500Z,14.20
2019-03-20T20:54:20.406Z,14.30
2019-03-20T20:57:01.858Z,14.30
2019-03-20T20:59:42.963Z,14.00
2019-03-20T21:02:23.648Z,14.20
2019-03-20T21:05:05.206Z,14.20
2019-03-20T21:07:45.952Z,14.20
2019-03-20T21:10:27.411Z,14.20
2019-03-20T21:13:08.782Z,14.20
2019-03-20T21:15:49.449Z,14.20
2019-03-20T21:18:30.330Z,14.20
2019-03-20T21:21:11.148Z,14.20
2019-03-20T21:23:52.390Z,13.90
2019-03-20T21:26:33.897Z,14.10
2019-03-20T21:29:15.199Z,14.20
2019-03-20T21:31:56.513Z,14.10
2019-03-20T21:34:38.080Z,13.90
2019-03-20T21:37:21.333Z,14.20
2019-03-20T21:40:02.563Z,14.20
2019-03-20T21:42:44.005Z,14.20
2019-03-20T21:45:25.834Z,14.20
2019-03-20T21:48:07.299Z,14.20
2019-03-20T21:50:48.003Z,14.10
2019-03-20T21:53:29.369Z,14.10
2019-03-20T21:56:10.323Z,14.10
2019-03-20T21:58:51.851Z,14.10
2019-03-20T22:01:33.019Z,14.10
2019-03-20T22:04:14.493Z,14.10
2019-03-20T22:06:55.799Z,14.10
2019-03-20T22:09:37.310Z,14.10
2019-03-20T22:12:18.869Z,14.10
2019-03-20T22:15:00.330Z,14.10
2019-03-20T22:17:50.129Z,14.10
2019-03-20T22:20:23.595Z,14.10
2019-03-20T22:23:05.160Z,14.10
2019-03-20T22:25:46.485Z,14.10
2019-03-20T22:28:27.109Z,14.10
2019-03-20T22:31:08.055Z,14.00
2019-03-20T22:33:48.766Z,14.10
2019-03-20T22:36:30.041Z,14.10
2019-03-20T22:39:10.959Z,14.00
2019-03-20T22:41:52.399Z,14.10
2019-03-20T22:44:33.027Z,14.00
2019-03-20T22:47:13.772Z,14.10
2019-03-20T22:49:54.461Z,14.10
2019-03-20T22:52:35.936Z,14.00
2019-03-20T22:55:17.509Z,14.00
2019-03-20T22:57:58.354Z,14.10
2019-03-20T23:00:39.105Z,14.10
2019-03-20T23:03:20.492Z,13.70
2019-03-20T23:06:01.745Z,14.00
2019-03-20T23:08:42.556Z,13.90
2019-03-20T23:11:23.419Z,14.00
2019-03-20T23:14:04.716Z,14.00
2019-03-20T23:16:46.012Z,14.00
2019-03-20T23:19:26.909Z,14.00
2019-03-20T23:22:08.315Z,14.00
2019-03-20T23:24:49.650Z,14.00
2019-03-20T23:27:30.834Z,14.00
2019-03-20T23:30:11.674Z,14.00
2019-03-20T23:32:52.292Z,14.00
2019-03-20T23:35:34.117Z,14.00
2019-03-20T23:38:14.780Z,14.00
2019-03-20T23:40:56.502Z,13.90
2019-03-20T23:43:37.890Z,14.00
2019-03-20T23:46:19.210Z,14.00
2019-03-20T23:48:59.894Z,14.00
2019-03-20T23:51:41.264Z,13.90
2019-03-20T23:54:22.654Z,13.90
2019-03-20T23:57:03.374Z,13.90
2019-03-20T23:59:44.421Z,13.90
